Time;durP1;ratioP1;P1;durP2;ratioP2;P2;SDS_P1;SDS_P2;PMS_P1;PMS_P2;Temp;Humidity;BMP_temperature;BMP_pressure;BME280_temperature;BME280_humidity;BME280_pressure;Samples;Min_cycle;Max_cycle;Signal;HPM_P1;HPM_P2
2022/12/02 00:00:17;;;;;;;182.43;39.25;;;;;;;-0.46;100.00;152434.44;5039241;28;20043;-75
2022/12/02 00:02:43;;;;;;;180.68;37.30;;;;;;;-0.35;100.00;152459.94;5033010;28;20034;-75
2022/12/02 00:05:14;;;;;;;174.30;41.42;;;;;;;-0.35;100.00;152461.19;5022134;28;20044;-76
2022/12/02 00:07:44;;;;;;;182.77;42.10;;;;;;;-0.35;100.00;152461.19;5031370;28;20043;-76
2022/12/02 00:10:28;;;;;;;170.23;36.92;;;;;;;-0.29;100.00;152475.19;5045368;28;20028;-75
2022/12/02 00:12:56;;;;;;;170.10;38.55;;;;;;;-0.28;100.00;152479.03;5043342;28;20061;-75
2022/12/02 00:15:35;;;;;;;176.00;39.00;;;;;;;-0.30;100.00;152472.63;5050327;28;20184;-75
2022/12/02 00:18:01;;;;;;;175.45;39.42;;;;;;;-0.33;100.00;152465.03;5030545;28;20045;-76
2022/12/02 00:20:26;;;;;;;194.90;41.65;;;;;;;-0.39;100.00;152451.00;5028667;28;20047;-75
2022/12/02 00:22:52;;;;;;;154.13;38.55;;;;;;;-0.30;100.00;152473.94;5030755;28;20560;-76
2022/12/02 00:25:18;;;;;;;150.40;35.90;;;;;;;-0.26;100.00;152482.84;5046956;28;20036;-75
2022/12/02 00:27:44;;;;;;;140.20;34.25;;;;;;;-0.32;100.00;152468.84;5063294;28;20029;-75
2022/12/02 00:30:10;;;;;;;161.65;37.17;;;;;;;-0.36;100.00;152457.38;5043650;28;20033;-75
2022/12/02 00:32:36;;;;;;;142.38;38.38;;;;;;;-0.35;100.00;152459.94;5029076;28;20741;-75
2022/12/02 00:35:01;;;;;;;127.03;32.00;;;;;;;-0.37;100.00;152456.09;5032971;28;20116;-75
2022/12/02 00:37:27;;;;;;;106.15;31.15;;;;;;;-0.37;100.00;152456.09;5051061;28;20029;-75
2022/12/02 00:39:55;;;;;;;109.93;31.35;;;;;;;-0.37;100.00;152456.09;5009798;28;20091;-75
2022/12/02 00:42:21;;;;;;;107.70;30.50;;;;;;;-0.44;100.00;152438.28;5031727;28;20055;-75
2022/12/02 00:47:31;;;;;;;107.72;31.55;;;;;;;-0.36;100.00;152457.38;5060425;28;20386;-75
2022/12/02 00:49:56;;;;;;;98.00;30.45;;;;;;;-0.35;100.00;152459.94;5025261;28;20060;-75
2022/12/02 00:52:22;;;;;;;96.75;28.10;;;;;;;-0.41;100.00;152445.94;5033755;28;20520;-75
2022/12/02 00:54:47;;;;;;;102.00;31.70;;;;;;;-0.43;100.00;152440.84;5055961;28;20075;-75
2022/12/02 00:57:13;;;;;;;96.68;30.08;;;;;;;-0.44;100.00;152439.53;5025876;28;20048;-75
2022/12/02 00:59:38;;;;;;;92.57;30.13;;;;;;;-0.48;100.00;152429.34;5042692;28;20037;-76
2022/12/02 01:02:04;;;;;;;97.20;32.13;;;;;;;-0.45;100.00;152435.75;5057971;28;20047;-74
2022/12/02 01:04:31;;;;;;;93.50;29.38;;;;;;;-0.49;100.00;152426.84;5041640;28;20074;-75
2022/12/02 01:06:56;;;;;;;98.25;32.03;;;;;;;-0.46;100.00;152434.44;5026915;28;20031;-74
2022/12/02 01:09:22;;;;;;;87.88;29.90;;;;;;;-0.43;100.00;152440.84;5026119;28;20041;-75
2022/12/02 01:11:48;;;;;;;90.40;29.98;;;;;;;-0.44;100.00;152438.28;5059074;28;20024;-75
2022/12/02 01:14:14;;;;;;;93.07;31.50;;;;;;;-0.43;100.00;152440.84;5044038;28;20081;-75
2022/12/02 01:16:39;;;;;;;98.60;30.52;;;;;;;-0.42;100.00;152444.63;5011377;28;20032;-75
2022/12/02 01:19:05;;;;;;;95.47;32.17;;;;;;;-0.45;100.00;152435.75;5025218;28;20041;-75
2022/12/02 01:21:30;;;;;;;99.68;33.17;;;;;;;-0.43;100.00;152442.09;5020383;28;20029;-76
2022/12/02 01:23:56;;;;;;;98.60;30.90;;;;;;;-0.44;100.00;152438.28;5057161;28;20063;-75
2022/12/02 01:26:22;;;;;;;101.55;33.83;;;;;;;-0.46;100.00;152433.19;5059319;28;20029;-75
2022/12/02 01:28:48;;;;;;;104.70;34.00;;;;;;;-0.45;100.00;152435.75;5010513;28;20035;-75
2022/12/02 01:31:14;;;;;;;116.60;37.97;;;;;;;-0.38;100.00;152453.53;5042933;28;20036;-75
2022/12/02 01:33:40;;;;;;;111.63;34.08;;;;;;;-0.40;100.00;152448.44;5028242;28;20569;-75
2022/12/02 01:36:06;;;;;;;113.82;35.13;;;;;;;-0.43;100.00;152440.84;5030419;28;20121;-75
2022/12/02 01:38:31;;;;;;;125.60;39.00;;;;;;;-0.42;100.00;152444.63;5030976;28;20162;-75
2022/12/02 01:40:58;;;;;;;127.28;36.85;;;;;;;-0.41;100.00;152445.94;5063054;28;20120;-75
2022/12/02 01:43:24;;;;;;;134.38;39.72;;;;;;;-0.45;100.00;152437.00;5028855;28;20037;-75
2022/12/02 01:45:50;;;;;;;130.13;39.70;;;;;;;-0.43;100.00;152442.09;5063317;28;20065;-75
2022/12/02 01:48:16;;;;;;;132.27;40.03;;;;;;;-0.43;100.00;152440.84;5045281;28;20036;-75
2022/12/02 01:50:42;;;;;;;122.65;37.03;;;;;;;-0.47;100.00;152431.91;5046169;28;20036;-75
2022/12/02 01:53:08;;;;;;;134.50;39.03;;;;;;;-0.52;100.00;152419.19;5046349;28;20064;-76
2022/12/02 01:55:34;;;;;;;137.70;39.33;;;;;;;-0.56;100.00;152407.75;5045819;28;20036;-75
2022/12/02 01:58:00;;;;;;;128.57;38.17;;;;;;;-0.50;100.00;152423.00;5054380;28;20473;-76
2022/12/02 02:00:26;;;;;;;126.80;37.13;;;;;;;-0.56;100.00;152407.75;5020678;28;20047;-76
2022/12/02 02:02:52;;;;;;;121.47;38.90;;;;;;;-0.56;100.00;152407.75;5041388;28;20075;-76
2022/12/02 02:05:21;;;;;;;122.95;36.58;;;;;;;-0.57;100.00;152406.44;5028105;28;20064;-76
2022/12/02 02:07:52;;;;;;;127.43;35.53;;;;;;;-0.63;100.00;152392.44;5063154;28;20544;-75
2022/12/02 02:10:20;;;;;;;138.45;40.80;;;;;;;-0.60;100.00;152398.81;5047705;28;20584;-75
2022/12/02 02:12:46;;;;;;;139.18;42.95;;;;;;;-0.59;100.00;152402.59;5030071;28;20768;-75
2022/12/02 02:15:14;;;;;;;130.65;40.25;;;;;;;-0.58;100.00;152403.91;5044285;28;20044;-75
2022/12/02 02:17:40;;;;;;;132.23;40.42;;;;;;;-0.63;100.00;152392.44;5040789;28;20119;-75
2022/12/02 02:20:10;;;;;;;124.68;37.55;;;;;;;-0.50;100.00;152424.25;5033125;28;20032;-76
2022/12/02 02:22:42;;;;;;;133.02;38.78;;;;;;;-0.57;100.00;152406.44;5045710;28;20039;-76
2022/12/02 02:25:10;;;;;;;126.28;41.63;;;;;;;-0.56;100.00;152407.75;5046038;28;20044;-75
2022/12/02 02:27:36;;;;;;;118.50;37.45;;;;;;;-0.48;100.00;152428.09;5054517;28;20032;-75
2022/12/02 02:30:03;;;;;;;124.53;39.40;;;;;;;-0.58;100.00;152403.91;5014158;28;20539;-76
2022/12/02 02:32:29;;;;;;;121.80;40.53;;;;;;;-0.59;100.00;152401.34;5044930;28;20115;-75
2022/12/02 02:34:54;;;;;;;115.38;38.25;;;;;;;-0.60;100.00;152398.81;5029168;28;20051;-76
2022/12/02 02:37:20;;;;;;;127.70;40.08;;;;;;;-0.58;100.00;152403.91;5046628;28;20059;-75
2022/12/02 02:39:46;;;;;;;123.65;37.28;;;;;;;-0.42;100.00;152443.34;5029576;28;20036;-75
2022/12/02 02:42:14;;;;;;;122.13;38.80;;;;;;;-0.51;100.00;152420.44;5044920;28;20037;-76
2022/12/02 02:44:40;;;;;;;122.80;41.65;;;;;;;-0.54;100.00;152412.81;5039967;28;20383;-75
2022/12/02 02:47:06;;;;;;;122.82;41.38;;;;;;;-0.55;100.00;152411.53;5042361;28;20036;-76
2022/12/02 02:49:32;;;;;;;119.72;43.38;;;;;;;-0.54;100.00;152414.09;5029683;28;20032;-76
2022/12/02 02:51:58;;;;;;;114.95;38.60;;;;;;;-0.60;100.00;152400.09;5045634;28;20944;-76
2022/12/02 02:54:23;;;;;;;122.30;41.45;;;;;;;-0.59;100.00;152402.59;5043663;28;20382;-76
2022/12/02 02:56:49;;;;;;;112.43;38.85;;;;;;;-0.62;100.00;152395.00;5045229;28;20680;-75
2022/12/02 02:59:15;;;;;;;112.70;40.85;;;;;;;-0.61;100.00;152397.53;5046080;28;20174;-76
2022/12/02 03:01:45;;;;;;;118.20;41.63;;;;;;;-0.64;100.00;152388.59;5026314;28;20861;-75
2022/12/02 03:04:15;;;;;;;116.18;38.78;;;;;;;-0.62;100.00;152395.00;5029865;28;20489;-75
2022/12/02 03:06:43;;;;;;;111.80;39.63;;;;;;;-0.61;100.00;152396.25;5038311;28;20049;-76
2022/12/02 03:09:11;;;;;;;114.90;41.30;;;;;;;-0.60;100.00;152398.81;5030080;28;20500;-75
2022/12/02 03:11:40;;;;;;;122.28;44.30;;;;;;;-0.56;100.00;152407.75;5028916;28;21185;-76
2022/12/02 03:14:07;;;;;;;116.65;41.28;;;;;;;-0.61;100.00;152396.25;5061801;28;20047;-76
2022/12/02 03:16:33;;;;;;;111.43;37.67;;;;;;;-0.55;100.00;152411.53;5030019;28;20109;-76
2022/12/02 03:18:59;;;;;;;119.38;44.90;;;;;;;-0.63;100.00;152392.44;5045448;28;20064;-76
2022/12/02 03:21:25;;;;;;;112.35;39.20;;;;;;;-0.56;100.00;152409.00;5028777;28;20067;-76
2022/12/02 03:23:54;;;;;;;111.20;41.30;;;;;;;-0.66;100.00;152384.81;5047913;28;20040;-75
2022/12/02 03:26:20;;;;;;;110.07;39.40;;;;;;;-0.73;100.00;152367.00;5035243;28;20036;-75
2022/12/02 03:28:46;;;;;;;115.80;42.58;;;;;;;-0.65;100.00;152387.34;5033106;28;20086;-76
2022/12/02 03:31:13;;;;;;;113.70;41.17;;;;;;;-0.72;100.00;152368.25;5066026;28;20602;-76
2022/12/02 03:33:40;;;;;;;108.90;40.95;;;;;;;-0.67;100.00;152381.00;5049398;28;20037;-76
2022/12/02 03:36:07;;;;;;;116.85;38.92;;;;;;;-0.66;100.00;152384.81;5029357;28;20089;-76
2022/12/02 03:38:35;;;;;;;111.32;39.20;;;;;;;-0.65;100.00;152387.34;5031378;28;20036;-76
2022/12/02 03:41:03;;;;;;;107.47;36.85;;;;;;;-0.67;100.00;152382.25;5045104;28;20120;-76
2022/12/02 03:43:29;;;;;;;112.95;39.22;;;;;;;-0.63;100.00;152392.44;5045085;28;20089;-77
2022/12/02 03:45:56;;;;;;;107.45;40.35;;;;;;;-0.68;100.00;152379.72;5062174;28;20122;-77
2022/12/02 03:48:23;;;;;;;109.30;41.83;;;;;;;-0.67;100.00;152381.00;5043058;28;20075;-76
2022/12/02 03:50:51;;;;;;;107.20;39.20;;;;;;;-0.69;100.00;152377.16;5042472;28;20028;-76
2022/12/02 03:53:18;;;;;;;105.80;40.00;;;;;;;-0.66;100.00;152384.81;5027407;28;20036;-75
2022/12/02 03:55:44;;;;;;;114.97;39.42;;;;;;;-0.69;100.00;152375.91;5043491;28;20107;-76
2022/12/02 03:58:10;;;;;;;105.40;38.80;;;;;;;-0.69;100.00;152375.91;5025476;28;20060;-77
2022/12/02 04:00:36;;;;;;;111.30;40.63;;;;;;;-0.68;100.00;152378.44;5023574;28;20056;-76
2022/12/02 04:03:02;;;;;;;116.93;44.42;;;;;;;-0.73;100.00;152367.00;5014613;28;20041;-76
2022/12/02 04:05:27;;;;;;;110.35;38.80;;;;;;;-0.73;100.00;152367.00;5042380;28;20036;-76
2022/12/02 04:07:53;;;;;;;108.40;43.17;;;;;;;-0.77;100.00;152356.81;5044383;28;20089;-76
2022/12/02 04:10:19;;;;;;;110.82;42.75;;;;;;;-0.78;100.00;152354.25;5035443;28;20170;-76
2022/12/02 04:12:44;;;;;;;106.10;38.38;;;;;;;-0.77;100.00;152356.81;5022804;28;20036;-76
2022/12/02 04:15:11;;;;;;;114.13;42.15;;;;;;;-0.74;100.00;152364.44;5039147;28;20032;-75
2022/12/02 04:17:36;;;;;;;112.28;38.75;;;;;;;-0.76;100.00;152358.06;5030012;28;20063;-75
2022/12/02 04:20:04;;;;;;;112.53;40.97;;;;;;;-0.75;100.00;152361.91;5025470;28;20054;-75
2022/12/02 04:22:30;;;;;;;112.25;38.63;;;;;;;-0.72;100.00;152369.50;5043203;28;20119;-76
2022/12/02 04:24:59;;;;;;;119.85;41.15;;;;;;;-0.69;100.00;152377.16;5028585;28;20131;-75
2022/12/02 04:27:25;;;;;;;111.82;39.78;;;;;;;-0.71;100.00;152370.81;5043294;28;20038;-77
2022/12/02 04:29:51;;;;;;;117.05;44.25;;;;;;;-0.70;100.00;152374.59;5029120;28;20032;-76
2022/12/02 04:32:18;;;;;;;106.60;39.30;;;;;;;-0.63;100.00;152391.16;5061133;28;20044;-77
2022/12/02 04:34:43;;;;;;;112.03;42.30;;;;;;;-0.65;100.00;152387.34;5029101;28;20423;-77
2022/12/02 04:37:09;;;;;;;106.45;41.85;;;;;;;-0.64;100.00;152389.91;5010259;28;20074;-76
2022/12/02 04:39:35;;;;;;;106.38;38.85;;;;;;;-0.65;100.00;152387.34;5025904;28;20178;-76
2022/12/02 04:42:00;;;;;;;107.57;41.70;;;;;;;-0.61;100.00;152396.25;5026395;28;20078;-76
2022/12/02 04:44:26;;;;;;;111.90;42.92;;;;;;;-0.60;100.00;152398.81;5026943;28;20040;-77
2022/12/02 04:46:52;;;;;;;98.90;38.60;;;;;;;-0.63;100.00;152392.44;5044484;28;20959;-76
2022/12/02 04:49:18;;;;;;;111.32;39.15;;;;;;;-0.67;100.00;152381.00;5043039;28;20035;-76
2022/12/02 04:51:43;;;;;;;112.07;42.03;;;;;;;-0.62;100.00;152395.00;5011335;28;20090;-77
2022/12/02 04:54:09;;;;;;;103.97;38.63;;;;;;;-0.67;100.00;152382.25;5029542;28;20071;-77
2022/12/02 04:56:34;;;;;;;114.65;40.35;;;;;;;-0.67;100.00;152381.00;5059696;28;20338;-77
2022/12/02 04:59:00;;;;;;;121.57;44.28;;;;;;;-0.69;100.00;152375.91;5045733;28;20504;-77
2022/12/02 05:01:26;;;;;;;114.60;42.60;;;;;;;-0.63;100.00;152391.16;5042601;28;20041;-77
2022/12/02 05:03:52;;;;;;;112.88;42.90;;;;;;;-0.71;100.00;152370.81;5028125;28;20045;-77
2022/12/02 05:06:17;;;;;;;108.78;40.20;;;;;;;-0.70;100.00;152374.59;5043356;28;20033;-76
2022/12/02 05:08:43;;;;;;;108.20;41.05;;;;;;;-0.69;100.00;152377.16;5048410;28;20656;-76
2022/12/02 05:11:09;;;;;;;116.30;41.22;;;;;;;-0.67;100.00;152382.25;5032841;28;20029;-76
2022/12/02 05:13:34;;;;;;;114.57;43.05;;;;;;;-0.71;100.00;152372.09;5032015;28;20546;-77
2022/12/02 05:16:00;;;;;;;107.88;42.63;;;;;;;-0.68;100.00;152379.72;5015508;28;20033;-77
2022/12/02 05:18:25;;;;;;;117.18;39.78;;;;;;;-0.68;100.00;152379.72;5047862;28;20052;-77
2022/12/02 05:20:51;;;;;;;105.97;38.50;;;;;;;-0.74;100.00;152363.16;5032206;28;20079;-77
2022/12/02 05:23:17;;;;;;;123.50;47.65;;;;;;;-0.73;100.00;152367.00;5032178;28;20127;-77
2022/12/02 05:25:42;;;;;;;107.78;38.95;;;;;;;-0.76;100.00;152359.34;5032650;28;20040;-76
2022/12/02 05:28:08;;;;;;;106.00;40.22;;;;;;;-0.66;100.00;152384.81;5045919;28;20852;-76
2022/12/02 05:30:34;;;;;;;114.85;41.22;;;;;;;-0.66;100.00;152383.50;5014320;28;20035;-77
2022/12/02 05:33:00;;;;;;;119.93;43.92;;;;;;;-0.62;100.00;152395.00;5048088;28;20040;-76
2022/12/02 05:35:25;;;;;;;118.60;43.20;;;;;;;-0.63;100.00;152392.44;5044660;28;20090;-76
2022/12/02 05:37:51;;;;;;;112.18;41.85;;;;;;;-0.72;100.00;152368.25;5032701;28;20085;-75
2022/12/02 05:40:16;;;;;;;108.57;40.50;;;;;;;-0.66;100.00;152383.50;5047549;28;20481;-76
2022/12/02 05:42:42;;;;;;;114.88;44.25;;;;;;;-0.70;100.00;152373.34;5048038;28;20035;-76
2022/12/02 05:45:21;;;;;;;109.80;40.55;;;;;;;-0.71;100.00;152370.81;5063914;28;20047;-76
2022/12/02 05:47:57;;;;;;;113.22;40.88;;;;;;;-0.75;100.00;152361.91;5032087;28;20062;-75
2022/12/02 05:50:23;;;;;;;112.43;39.60;;;;;;;-0.68;100.00;152378.44;5062817;28;20106;-76
2022/12/02 05:52:54;;;;;;;120.30;41.70;;;;;;;-0.65;100.00;152387.34;5016428;28;20932;-76
2022/12/02 05:55:21;;;;;;;119.13;42.60;;;;;;;-0.71;100.00;152372.09;5044423;28;20024;-75
2022/12/02 05:57:47;;;;;;;103.70;39.40;;;;;;;-0.72;100.00;152368.25;5042761;28;20048;-75
2022/12/02 06:00:21;;;;;;;98.75;36.33;;;;;;;-0.63;100.00;152391.16;5028312;28;20082;-76
2022/12/02 06:02:57;;;;;;;111.35;40.75;;;;;;;-0.66;100.00;152384.81;5031694;28;20039;-76
2022/12/02 06:05:25;;;;;;;107.97;37.28;;;;;;;-0.64;100.00;152389.91;5014644;28;20520;-75
2022/12/02 06:07:56;;;;;;;99.28;37.08;;;;;;;-0.60;100.00;152398.81;5031539;28;20097;-78
2022/12/02 06:10:29;;;;;;;104.47;39.55;;;;;;;-0.58;100.00;152403.91;5045921;28;20028;-75
2022/12/02 06:12:58;;;;;;;96.97;37.60;;;;;;;-0.67;100.00;152382.25;5031684;28;20420;-76
2022/12/02 06:15:29;;;;;;;94.82;35.13;;;;;;;-0.62;100.00;152393.75;5045262;28;20025;-75
2022/12/02 06:17:55;;;;;;;98.68;35.95;;;;;;;-0.69;100.00;152377.16;5031727;28;20040;-76
2022/12/02 06:20:28;;;;;;;92.40;35.88;;;;;;;-0.61;100.00;152396.25;5062791;28;20051;-76
2022/12/02 06:22:55;;;;;;;102.85;37.88;;;;;;;-0.63;100.00;152392.44;5030249;28;20199;-77
2022/12/02 06:25:28;;;;;;;104.82;36.80;;;;;;;-0.61;100.00;152397.53;5043435;28;20039;-76
2022/12/02 06:27:58;;;;;;;94.25;35.53;;;;;;;-0.59;100.00;152402.59;5029800;28;20067;-76
2022/12/02 06:30:24;;;;;;;96.38;34.83;;;;;;;-0.50;100.00;152423.00;5031158;28;20032;-75
2022/12/02 06:32:57;;;;;;;95.38;38.92;;;;;;;-0.52;100.00;152417.91;5031109;28;20036;-76
2022/12/02 06:35:29;;;;;;;88.47;35.50;;;;;;;-0.51;100.00;152421.75;5061654;28;20040;-76
2022/12/02 06:37:57;;;;;;;91.32;36.10;;;;;;;-0.51;100.00;152421.75;5020051;28;20139;-75
2022/12/02 06:40:35;;;;;;;89.70;33.38;;;;;;;-0.56;100.00;152409.00;5031309;28;20883;-76
2022/12/02 06:43:11;;;;;;;86.15;35.08;;;;;;;-0.56;100.00;152409.00;5046201;28;20036;-76
2022/12/02 06:45:36;;;;;;;87.97;35.75;;;;;;;-0.54;100.00;152414.09;5042617;28;20504;-75
2022/12/02 06:48:24;;;;;;;90.90;36.33;;;;;;;-0.56;100.00;152407.75;5031336;28;20128;-76
2022/12/02 06:50:50;;;;;;;85.93;32.90;;;;;;;-0.53;100.00;152415.34;5042112;28;20115;-76
2022/12/02 06:53:28;;;;;;;90.82;34.83;;;;;;;-0.51;100.00;152420.44;5028607;28;20119;-76
2022/12/02 06:55:58;;;;;;;87.47;34.95;;;;;;;-0.53;100.00;152415.34;5041981;28;20041;-75
2022/12/02 06:58:40;;;;;;;90.40;35.22;;;;;;;-0.47;100.00;152430.63;5053893;28;20057;-76
2022/12/02 07:01:18;;;;;;;95.40;36.45;;;;;;;-0.50;100.00;152424.25;5028732;28;20040;-76
2022/12/02 07:04:24;;;;;;;82.55;32.42;;;;;;;-0.47;100.00;152431.91;5058846;28;20440;-76
2022/12/02 07:06:51;;;;;;;90.55;35.78;;;;;;;-0.48;100.00;152429.34;5014683;28;20048;-76
2022/12/02 07:09:25;;;;;;;93.03;37.15;;;;;;;-0.49;100.00;152425.53;5028812;28;20580;-76
2022/12/02 07:11:52;;;;;;;87.18;34.95;;;;;;;-0.47;100.00;152430.63;5064226;28;20028;-75
2022/12/02 07:14:43;;;;;;;90.03;37.42;;;;;;;-0.47;100.00;152431.91;5033089;28;20555;-75
2022/12/02 07:17:20;;;;;;;90.97;37.72;;;;;;;-0.47;100.00;152431.91;5045890;28;20036;-76
2022/12/02 07:19:53;;;;;;;91.28;34.50;;;;;;;-0.44;100.00;152438.28;5045265;28;20033;-76
2022/12/02 07:22:22;;;;;;;88.18;32.88;;;;;;;-0.42;100.00;152443.34;5045950;28;20036;-75
2022/12/02 07:24:55;;;;;;;85.65;35.38;;;;;;;-0.45;100.00;152437.00;5046632;28;20035;-75
2022/12/02 07:27:27;;;;;;;92.97;35.88;;;;;;;-0.47;100.00;152431.91;5044749;28;20041;-76
2022/12/02 07:29:55;;;;;;;94.78;33.53;;;;;;;-0.45;100.00;152435.75;5046078;28;20035;-76
2022/12/02 07:32:20;;;;;;;88.65;34.97;;;;;;;-0.48;100.00;152428.09;5029055;28;20051;-76
2022/12/02 07:34:47;;;;;;;97.15;35.95;;;;;;;-0.48;100.00;152429.34;5030638;28;20055;-76
2022/12/02 07:37:13;;;;;;;85.40;32.80;;;;;;;-0.43;100.00;152442.09;5046134;28;20547;-77
2022/12/02 07:39:38;;;;;;;89.75;36.15;;;;;;;-0.43;100.00;152440.84;5029138;28;20036;-76
2022/12/02 07:42:04;;;;;;;92.05;34.55;;;;;;;-0.42;100.00;152443.34;5042155;28;20056;-76
2022/12/02 07:44:29;;;;;;;94.50;35.60;;;;;;;-0.41;100.00;152447.19;5030439;28;20121;-75
2022/12/02 07:46:55;;;;;;;96.13;37.28;;;;;;;-0.46;100.00;152433.19;5047279;28;20037;-75
2022/12/02 07:49:21;;;;;;;102.25;38.25;;;;;;;-0.42;100.00;152444.63;5045787;28;20035;-77
2022/12/02 07:51:47;;;;;;;102.75;37.05;;;;;;;-0.40;100.00;152448.44;5030064;28;20829;-76
2022/12/02 07:54:13;;;;;;;98.25;34.65;;;;;;;-0.44;100.00;152439.53;5045186;28;20040;-76
2022/12/02 07:56:39;;;;;;;103.25;36.70;;;;;;;-0.35;100.00;152459.94;5030986;28;20497;-76
2022/12/02 07:59:04;;;;;;;99.78;38.05;;;;;;;-0.35;100.00;152459.94;5047054;28;20047;-76
2022/12/02 08:01:30;;;;;;;102.07;38.22;;;;;;;-0.31;100.00;152470.09;5045487;28;20170;-76
2022/12/02 08:03:56;;;;;;;102.97;36.28;;;;;;;-0.30;100.00;152473.94;5030574;28;20040;-75
2022/12/02 08:06:21;;;;;;;103.68;36.55;;;;;;;-0.29;100.00;152476.47;5045500;28;20037;-75
2022/12/02 08:08:47;;;;;;;95.22;33.53;;;;;;;-0.25;100.00;152486.63;5046758;28;20032;-76
2022/12/02 08:11:15;;;;;;;99.55;36.80;;;;;;;-0.23;100.00;152490.47;5029476;28;20493;-76
2022/12/02 08:13:40;;;;;;;106.65;38.40;;;;;;;-0.27;100.00;152480.28;5030429;28;20059;-76
2022/12/02 08:16:07;;;;;;;97.15;37.35;;;;;;;-0.27;100.00;152480.28;5043183;28;20117;-76
2022/12/02 08:18:33;;;;;;;109.85;37.13;;;;;;;-0.30;100.00;152473.94;5061987;28;20032;-75
2022/12/02 08:20:59;;;;;;;101.18;37.90;;;;;;;-0.25;100.00;152485.38;5061856;28;20032;-76
2022/12/02 08:23:25;;;;;;;98.22;36.53;;;;;;;-0.24;100.00;152489.19;5028590;28;20044;-76
2022/12/02 08:25:50;;;;;;;99.05;36.10;;;;;;;-0.23;100.00;152490.47;5047172;28;20428;-76
2022/12/02 08:28:16;;;;;;;101.18;36.95;;;;;;;-0.21;100.00;152495.56;5064214;28;20134;-76
2022/12/02 08:30:41;;;;;;;103.28;36.80;;;;;;;-0.13;100.00;152514.66;5049150;28;20073;-76
2022/12/02 08:33:08;;;;;;;93.80;34.00;;;;;;;-0.07;100.00;152531.22;5034423;28;20141;-76
2022/12/02 08:35:33;;;;;;;102.70;38.33;;;;;;;-0.11;100.00;152519.78;5043715;28;20071;-75
2022/12/02 08:38:02;;;;;;;91.93;35.28;;;;;;;-0.11;100.00;152519.78;5050323;28;20068;-76
2022/12/02 08:40:27;;;;;;;105.22;38.33;;;;;;;-0.12;100.00;152518.47;5015941;28;20363;-76
2022/12/02 08:42:53;;;;;;;98.20;35.95;;;;;;;-0.02;100.00;152543.97;5044426;28;20075;-76
2022/12/02 08:45:21;;;;;;;90.55;33.95;;;;;;;0.06;100.00;152561.78;5045556;28;20040;-76
2022/12/02 08:47:47;;;;;;;99.28;36.85;;;;;;;0.03;100.00;152554.16;5012660;28;20032;-75
2022/12/02 08:50:12;;;;;;;92.38;37.08;;;;;;;0.14;100.00;152582.19;5061265;28;20033;-76
2022/12/02 08:52:38;;;;;;;89.57;35.55;;;;;;;0.18;100.00;152592.38;5054681;28;20086;-75
2022/12/02 08:55:04;;;;;;;97.45;34.78;;;;;;;0.16;100.00;152587.28;5028765;28;20032;-76
2022/12/02 08:57:30;;;;;;;96.97;35.65;;;;;;;0.10;100.00;152573.25;5045812;28;20044;-75
2022/12/02 08:59:56;;;;;;;93.43;36.42;;;;;;;0.05;100.00;152560.50;5028730;28;20044;-76
2022/12/02 09:02:21;;;;;;;92.28;37.20;;;;;;;0.02;100.00;152552.91;5042883;28;20037;-76
2022/12/02 09:04:47;;;;;;;93.07;37.53;;;;;;;-0.01;100.00;152545.25;5044899;28;20128;-76
2022/12/02 09:07:12;;;;;;;99.05;39.33;;;;;;;-0.07;100.00;152531.22;5026391;28;20127;-76
2022/12/02 09:09:38;;;;;;;95.88;35.30;;;;;;;0.00;100.00;152547.81;5044438;28;20581;-76
2022/12/02 09:12:04;;;;;;;94.00;36.28;;;;;;;0.06;100.00;152561.78;5028914;28;20033;-76
2022/12/02 09:14:29;;;;;;;89.60;34.85;;;;;;;0.12;100.00;152577.09;5061630;28;20039;-75
2022/12/02 09:16:55;;;;;;;95.25;38.90;;;;;;;0.17;100.00;152591.09;5011448;28;20040;-76
2022/12/02 09:19:21;;;;;;;103.63;37.03;;;;;;;0.22;100.00;152601.28;5043346;28;20749;-75
2022/12/02 09:21:46;;;;;;;91.50;39.10;;;;;;;0.25;100.00;152608.94;5043789;28;20082;-74
2022/12/02 09:24:12;;;;;;;96.30;35.47;;;;;;;0.17;100.00;152589.78;5028054;28;20063;-76
2022/12/02 09:26:38;;;;;;;96.25;38.72;;;;;;;0.15;100.00;152584.69;5028601;28;20105;-75
2022/12/02 09:29:03;;;;;;;96.75;38.72;;;;;;;0.11;100.00;152574.50;5044507;28;20035;-75
2022/12/02 09:31:29;;;;;;;94.28;36.00;;;;;;;0.17;100.00;152591.09;5044985;28;20048;-75
2022/12/02 09:33:55;;;;;;;100.15;38.40;;;;;;;0.18;100.00;152593.63;5028847;28;20041;-76
2022/12/02 09:36:20;;;;;;;108.85;38.60;;;;;;;0.17;100.00;152591.09;5009471;28;20036;-75
2022/12/02 09:38:46;;;;;;;99.53;39.08;;;;;;;0.19;100.00;152594.94;5044272;28;20597;-76
2022/12/02 09:41:11;;;;;;;94.90;37.10;;;;;;;0.27;100.00;152615.28;5045215;28;20040;-75
2022/12/02 09:43:37;;;;;;;109.28;38.67;;;;;;;0.21;100.00;152598.72;5058364;28;20032;-76
2022/12/02 09:46:05;;;;;;;102.95;39.60;;;;;;;0.25;100.00;152608.94;5036110;28;20082;-75
2022/12/02 09:48:31;;;;;;;105.13;38.80;;;;;;;0.23;100.00;152603.81;5044608;28;20116;-75
2022/12/02 09:50:58;;;;;;;96.90;36.97;;;;;;;0.22;100.00;152602.53;5028338;28;20039;-74
2022/12/02 09:53:29;;;;;;;98.05;38.47;;;;;;;0.30;100.00;152621.66;5045200;28;20037;-75
2022/12/02 09:55:55;;;;;;;97.22;35.63;;;;;;;0.31;100.00;152624.22;5049147;28;20481;-76
2022/12/02 09:58:21;;;;;;;103.15;38.17;;;;;;;0.40;100.00;152647.16;5047431;28;20044;-75
2022/12/02 10:00:50;;;;;;;115.45;42.50;;;;;;;0.38;100.00;152642.06;5032462;28;20085;-75
2022/12/02 10:03:19;;;;;;;104.22;39.72;;;;;;;0.34;100.00;152631.81;5047613;28;20085;-75
2022/12/02 10:05:45;;;;;;;104.70;41.50;;;;;;;0.42;100.00;152650.97;5029335;28;20044;-75
2022/12/02 10:08:16;;;;;;;99.00;39.70;;;;;;;0.41;100.00;152649.66;5023165;28;20044;-75
2022/12/02 10:10:44;;;;;;;96.22;37.47;;;;;;;0.35;100.00;152635.66;5031994;28;20044;-75
2022/12/02 10:13:15;;;;;;;102.38;40.22;;;;;;;0.30;100.00;152622.94;5030435;28;20642;-75
2022/12/02 10:15:42;;;;;;;95.60;38.00;;;;;;;0.32;100.00;152626.75;5032418;28;20032;-75
2022/12/02 10:18:18;;;;;;;93.35;38.58;;;;;;;0.37;100.00;152640.75;5047713;28;20437;-75
2022/12/02 10:20:44;;;;;;;96.15;37.35;;;;;;;0.36;100.00;152638.22;5031813;28;20135;-75
2022/12/02 10:23:21;;;;;;;97.30;38.10;;;;;;;0.36;100.00;152638.22;5031018;28;20502;-75
2022/12/02 10:25:57;;;;;;;101.13;40.17;;;;;;;0.39;100.00;152645.84;5049089;28;20036;-74
2022/12/02 10:28:28;;;;;;;102.28;36.63;;;;;;;0.44;100.00;152656.06;5055275;28;20056;-75
2022/12/02 10:31:00;;;;;;;93.70;36.08;;;;;;;0.52;100.00;152676.44;5060404;28;20029;-75
2022/12/02 10:33:28;;;;;;;100.55;37.58;;;;;;;0.54;100.00;152682.78;5045187;28;20036;-75
2022/12/02 10:35:55;;;;;;;94.38;36.50;;;;;;;0.55;100.00;152685.38;5048814;28;20548;-75
2022/12/02 10:38:30;;;;;;;98.03;38.65;;;;;;;0.63;100.00;152703.22;5044676;28;20078;-75
2022/12/02 10:41:14;;;;;;;93.00;36.03;;;;;;;0.70;100.00;152722.31;5025307;28;20043;-75
2022/12/02 10:44:00;;;;;;;96.55;39.30;;;;;;;0.74;100.00;152731.25;5046905;28;20031;-75
2022/12/02 10:46:26;;;;;;;99.65;38.28;;;;;;;0.74;100.00;152732.50;5064583;28;20049;-74
2022/12/02 10:48:52;;;;;;;94.15;38.90;;;;;;;0.61;100.00;152699.38;5047137;28;20028;-74
2022/12/02 10:51:20;;;;;;;97.50;40.50;;;;;;;0.66;100.00;152712.13;5029973;28;20040;-75
2022/12/02 10:53:50;;;;;;;96.78;42.58;;;;;;;0.65;100.00;152708.31;5030638;28;20715;-75
2022/12/02 10:56:24;;;;;;;94.22;37.40;;;;;;;0.58;100.00;152691.72;5045993;28;20094;-75
2022/12/02 10:58:51;;;;;;;99.22;39.88;;;;;;;0.56;100.00;152686.63;5045929;28;20040;-75
2022/12/02 11:01:21;;;;;;;91.18;37.15;;;;;;;0.62;100.00;152700.63;5061932;28;20048;-75
2022/12/02 11:03:47;;;;;;;93.80;36.28;;;;;;;0.61;100.00;152699.38;5030398;28;20059;-75